createdAt,value
2023-02-05T00:03:50.600Z,8.60
2023-02-05T00:08:52.755Z,8.60
2023-02-05T00:13:54.899Z,8.60
2023-02-05T00:18:57.549Z,8.70
2023-02-05T00:23:59.551Z,8.60
2023-02-05T00:29:01.825Z,8.70
2023-02-05T00:34:03.734Z,8.60
2023-02-05T00:39:05.718Z,8.60
2023-02-05T00:44:07.598Z,8.60
2023-02-05T00:49:09.367Z,8.60
2023-02-05T00:54:11.527Z,8.60
2023-02-05T00:59:13.397Z,8.60
2023-02-05T01:04:15.334Z,8.50
2023-02-05T01:09:17.145Z,8.50
2023-02-05T01:14:18.924Z,8.60
2023-02-05T01:19:20.738Z,8.60
2023-02-05T01:24:22.512Z,8.50
2023-02-05T01:29:29.353Z,8.50
2023-02-05T01:34:31.526Z,8.50
2023-02-05T01:39:33.374Z,8.50
2023-02-05T01:44:36.363Z,8.50
2023-02-05T01:49:43.624Z,8.50
2023-02-05T01:54:48.777Z,8.50
2023-02-05T01:59:51.234Z,8.40
2023-02-05T02:04:56.784Z,8.40
2023-02-05T02:09:59.059Z,8.40
2023-02-05T02:15:06.690Z,8.40
2023-02-05T02:20:14.209Z,8.40
2023-02-05T02:25:34.658Z,8.40
2023-02-05T02:30:56.674Z,8.40
2023-02-05T02:36:09.246Z,8.40
2023-02-05T02:41:19.865Z,8.30
2023-02-05T02:46:28.217Z,8.30
2023-02-05T02:51:31.886Z,8.30
2023-02-05T02:56:36.048Z,8.30
2023-02-05T03:01:44.663Z,8.30
2023-02-05T03:06:54.307Z,8.30
2023-02-05T03:11:56.120Z,8.30
2023-02-05T03:16:57.954Z,8.20
2023-02-05T03:22:04.192Z,8.20
2023-02-05T03:27:06.474Z,8.10
2023-02-05T03:32:28.935Z,8.20
2023-02-05T03:38:03.232Z,8.10
2023-02-05T03:43:34.191Z,8.10
2023-02-05T03:48:48.589Z,8.10
2023-02-05T03:54:18.474Z,8.10
2023-02-05T03:59:22.083Z,8.10
2023-02-05T04:04:24.268Z,8.00
2023-02-05T04:09:26.030Z,8.00
2023-02-05T04:14:27.809Z,8.00
2023-02-05T04:19:31.068Z,7.90
2023-02-05T04:24:33.084Z,8.00
2023-02-05T04:29:34.858Z,7.90
2023-02-05T04:34:36.682Z,7.90
2023-02-05T04:39:38.445Z,7.90
2023-02-05T04:44:40.237Z,7.90
2023-02-05T04:49:42.196Z,7.90
2023-02-05T04:54:44.071Z,7.90
2023-02-05T04:59:45.869Z,7.90
2023-02-05T05:04:47.620Z,7.90
2023-02-05T05:09:51.417Z,7.80
2023-02-05T05:14:54.234Z,7.80
2023-02-05T05:19:56.214Z,7.80
2023-02-05T05:24:58.018Z,7.70
2023-02-05T05:29:59.785Z,7.60
2023-02-05T05:35:01.712Z,7.60
2023-02-05T05:40:22.424Z,7.60
2023-02-05T05:45:24.432Z,7.50
2023-02-05T05:50:26.268Z,7.50
2023-02-05T05:55:28.053Z,7.50
2023-02-05T06:00:29.859Z,7.30
2023-02-05T06:05:32.938Z,7.30
2023-02-05T06:10:35.310Z,7.30
2023-02-05T06:15:37.962Z,7.40
2023-02-05T06:20:39.943Z,7.20
2023-02-05T06:25:41.752Z,7.40
2023-02-05T06:30:43.745Z,7.40
2023-02-05T06:35:46.528Z,7.30
2023-02-05T06:40:49.201Z,7.30
2023-02-05T06:45:50.997Z,7.50
2023-02-05T06:50:52.920Z,7.50
2023-02-05T06:55:58.516Z,7.50
2023-02-05T07:01:00.286Z,7.50
2023-02-05T07:06:04.412Z,7.50
2023-02-05T07:11:06.485Z,7.50
2023-02-05T07:16:08.733Z,7.50
2023-02-05T07:21:16.290Z,7.50
2023-02-05T07:26:18.680Z,7.40
2023-02-05T07:31:20.810Z,7.40
2023-02-05T07:36:22.640Z,7.30
2023-02-05T07:41:26.802Z,7.10
2023-02-05T07:46:28.852Z,7.10
2023-02-05T07:51:30.783Z,7.00
2023-02-05T07:56:32.574Z,6.90
2023-02-05T08:01:35.124Z,6.90
2023-02-05T08:06:36.886Z,6.90
2023-02-05T08:11:38.705Z,7.00
2023-02-05T08:16:40.582Z,7.00
2023-02-05T08:21:43.381Z,7.00
2023-02-05T08:26:45.373Z,7.00
2023-02-05T08:31:47.252Z,7.00
2023-02-05T08:36:49.333Z,7.10
2023-02-05T08:41:51.274Z,7.10
2023-02-05T08:46:53.169Z,7.10
2023-02-05T08:51:55.000Z,7.20
2023-02-05T08:56:57.509Z,7.10
2023-02-05T09:01:59.486Z,7.30
2023-02-05T09:07:01.255Z,7.40
2023-02-05T09:12:03.321Z,7.30
2023-02-05T09:17:07.246Z,7.50
2023-02-05T09:22:09.929Z,7.70
2023-02-05T09:27:14.362Z,7.60
2023-02-05T09:32:16.391Z,7.50
2023-02-05T09:37:18.608Z,7.50
2023-02-05T09:43:04.715Z,7.40
2023-02-05T09:48:10.501Z,7.60
2023-02-05T09:53:18.969Z,7.70
2023-02-05T09:58:31.130Z,7.70
2023-02-05T10:03:47.101Z,7.60
2023-02-05T10:08:58.613Z,7.60
2023-02-05T10:14:25.235Z,7.70
2023-02-05T10:19:47.518Z,7.50
2023-02-05T10:24:54.843Z,7.40
2023-02-05T10:30:15.909Z,7.20
2023-02-05T10:35:27.165Z,7.10
2023-02-05T10:40:32.875Z,7.30
2023-02-05T10:45:35.145Z,7.20
2023-02-05T10:51:05.893Z,7.40
2023-02-05T10:56:08.223Z,7.50
2023-02-05T11:01:17.550Z,7.50
2023-02-05T11:06:20.830Z,7.70
2023-02-05T11:11:29.074Z,7.80
2023-02-05T11:16:41.486Z,7.70
2023-02-05T11:22:24.236Z,7.70
2023-02-05T11:27:27.715Z,7.80
2023-02-05T11:32:36.601Z,7.80
2023-02-05T11:37:41.774Z,8.00
2023-02-05T11:42:50.965Z,8.00
2023-02-05T11:47:53.169Z,8.40
2023-02-05T11:52:56.708Z,8.30
2023-02-05T11:58:36.226Z,8.30
2023-02-05T12:03:38.937Z,8.80
2023-02-05T12:08:52.257Z,8.80
2023-02-05T12:14:07.459Z,8.70
2023-02-05T12:19:35.661Z,8.70
2023-02-05T12:24:40.609Z,8.60
2023-02-05T12:30:33.481Z,9.00
2023-02-05T12:35:51.959Z,9.20
2023-02-05T12:41:02.639Z,9.20
2023-02-05T12:46:13.607Z,9.10
2023-02-05T12:51:34.563Z,8.90
2023-02-05T12:56:52.599Z,8.80
2023-02-05T13:02:00.977Z,9.20
2023-02-05T13:07:26.387Z,9.50
2023-02-05T13:12:32.826Z,9.60
2023-02-05T13:17:40.812Z,9.60
2023-02-05T13:23:11.936Z,9.80
2023-02-05T13:28:40.475Z,9.50
2023-02-05T13:33:43.618Z,9.70
2023-02-05T13:39:07.321Z,9.70
2023-02-05T13:44:37.447Z,9.50
2023-02-05T13:49:50.668Z,9.50
2023-02-05T13:55:24.172Z,9.70
2023-02-05T14:00:27.762Z,9.40
2023-02-05T14:05:36.509Z,9.30
2023-02-05T14:10:42.284Z,9.50
2023-02-05T14:15:44.551Z,9.80
2023-02-05T14:20:46.384Z,10.40
2023-02-05T14:26:03.428Z,10.70
2023-02-05T14:31:07.542Z,11.20
2023-02-05T14:36:21.133Z,11.30
2023-02-05T14:41:33.791Z,10.40
2023-02-05T14:46:40.009Z,10.00
2023-02-05T14:51:48.728Z,10.40
2023-02-05T14:56:55.370Z,11.40
2023-02-05T15:01:59.428Z,11.50
2023-02-05T15:07:11.040Z,10.60
2023-02-05T15:13:04.258Z,11.20
2023-02-05T15:18:16.946Z,11.90
2023-02-05T15:23:32.499Z,13.10
2023-02-05T15:28:45.491Z,11.60
2023-02-05T15:33:58.575Z,13.30
2023-02-05T15:39:24.227Z,12.80
2023-02-05T15:44:30.122Z,11.00
2023-02-05T15:49:37.529Z,9.90
2023-02-05T15:54:40.103Z,9.90
2023-02-05T15:59:41.930Z,9.70
2023-02-05T16:04:43.798Z,9.40
2023-02-05T16:09:53.872Z,9.00
2023-02-05T16:15:07.685Z,8.70
2023-02-05T16:20:26.662Z,8.50
2023-02-05T16:25:44.510Z,8.40
2023-02-05T16:30:47.877Z,8.40
2023-02-05T16:35:49.829Z,8.20
2023-02-05T16:40:55.869Z,8.00
2023-02-05T16:46:07.000Z,8.00
2023-02-05T16:51:35.540Z,7.90
2023-02-05T16:56:59.715Z,7.70
2023-02-05T17:02:03.330Z,7.70
2023-02-05T17:07:17.907Z,7.60
2023-02-05T17:12:23.195Z,7.60
2023-02-05T17:17:26.924Z,7.60
2023-02-05T17:22:29.378Z,7.50
2023-02-05T17:27:37.841Z,7.60
2023-02-05T17:32:39.677Z,7.50
2023-02-05T17:37:41.532Z,7.50
2023-02-05T17:42:45.421Z,7.40
2023-02-05T17:47:49.059Z,7.30
2023-02-05T17:52:52.271Z,7.30
2023-02-05T17:57:54.464Z,7.10
2023-02-05T18:02:56.475Z,7.10
2023-02-05T18:07:59.705Z,7.00
2023-02-05T18:13:01.563Z,7.00
2023-02-05T18:18:03.494Z,7.00
2023-02-05T18:23:05.666Z,6.90
2023-02-05T18:28:07.459Z,6.90
2023-02-05T18:33:09.230Z,6.90
2023-02-05T18:38:11.129Z,6.70
2023-02-05T18:43:13.394Z,6.70
2023-02-05T18:48:15.228Z,6.70
2023-02-05T18:53:19.514Z,6.50
2023-02-05T18:58:21.367Z,6.50
2023-02-05T19:03:24.251Z,6.40
2023-02-05T19:08:26.120Z,6.40
2023-02-05T19:13:28.043Z,6.40
2023-02-05T19:18:31.829Z,6.30
2023-02-05T19:23:34.061Z,6.20
2023-02-05T19:28:36.714Z,6.30
2023-02-05T19:33:39.385Z,6.20
2023-02-05T19:38:42.151Z,6.30
2023-02-05T19:43:50.435Z,6.30
2023-02-05T19:48:53.139Z,6.10
2023-02-05T19:53:57.614Z,6.10
2023-02-05T19:58:59.500Z,6.00
2023-02-05T20:04:11.386Z,6.10
2023-02-05T20:09:14.514Z,6.00
2023-02-05T20:14:17.573Z,5.90
2023-02-05T20:19:19.868Z,6.00
2023-02-05T20:24:22.482Z,5.90
2023-02-05T20:29:43.057Z,5.80
2023-02-05T20:34:50.026Z,5.90
2023-02-05T20:39:51.889Z,5.80
2023-02-05T20:44:53.999Z,5.80
2023-02-05T20:49:55.822Z,5.60
2023-02-05T20:54:58.221Z,5.60
2023-02-05T20:59:59.985Z,5.60
2023-02-05T21:05:01.742Z,5.40
2023-02-05T21:10:06.218Z,5.40
2023-02-05T21:15:08.427Z,5.40
2023-02-05T21:20:10.656Z,5.30
2023-02-05T21:25:12.532Z,5.30
2023-02-05T21:30:15.022Z,5.30
2023-02-05T21:35:17.230Z,5.30
2023-02-05T21:40:19.078Z,5.30
2023-02-05T21:45:21.248Z,5.20
2023-02-05T21:50:23.369Z,5.20
2023-02-05T21:55:26.862Z,5.20
2023-02-05T22:00:28.706Z,5.10
2023-02-05T22:05:30.481Z,5.10
2023-02-05T22:10:32.421Z,5.20
2023-02-05T22:15:34.641Z,5.20
2023-02-05T22:20:36.624Z,5.20
2023-02-05T22:25:38.512Z,5.30
2023-02-05T22:30:41.270Z,5.30
2023-02-05T22:35:43.181Z,5.10
2023-02-05T22:40:44.946Z,5.10
2023-02-05T22:45:46.831Z,5.00
2023-02-05T22:50:48.856Z,4.90
2023-02-05T22:55:50.787Z,4.80
2023-02-05T23:00:52.662Z,4.80
2023-02-05T23:05:54.441Z,4.80
2023-02-05T23:10:56.415Z,4.90
2023-02-05T23:15:58.284Z,4.60
2023-02-05T23:21:00.118Z,4.60
2023-02-05T23:26:13.728Z,4.60
2023-02-05T23:31:16.786Z,4.50
2023-02-05T23:36:18.852Z,4.50
2023-02-05T23:41:36.176Z,4.30
2023-02-05T23:46:39.508Z,4.30
2023-02-05T23:51:41.878Z,4.20
2023-02-05T23:56:43.912Z,4.30
